createdAt,value
2023-01-28T00:01:18.681Z,0.28
2023-01-28T00:03:50.788Z,0.29
2023-01-28T00:06:20.112Z,0.28
2023-01-28T00:08:49.495Z,0.28
2023-01-28T00:11:19.087Z,0.28
2023-01-28T00:13:47.559Z,0.28
2023-01-28T00:16:15.999Z,0.29
2023-01-28T00:18:44.374Z,0.29
2023-01-28T00:21:14.779Z,0.27
2023-01-28T00:23:48.408Z,0.24
2023-01-28T00:26:18.748Z,0.23
2023-01-28T00:28:48.289Z,0.22
2023-01-28T00:31:18.412Z,0.23
2023-01-28T00:33:48.016Z,0.18
2023-01-28T00:36:17.324Z,0.21
2023-01-28T00:38:51.385Z,0.20
2023-01-28T00:41:23.475Z,0.20
2023-01-28T00:43:53.317Z,0.19
2023-01-28T00:46:23.923Z,0.19
2023-01-28T00:48:52.752Z,0.19
2023-01-28T00:51:22.571Z,0.18
2023-01-28T00:53:51.980Z,0.18
2023-01-28T00:56:21.951Z,0.17
2023-01-28T00:58:50.942Z,0.14
2023-01-28T01:01:22.365Z,0.12
2023-01-28T01:03:57.748Z,0.05
2023-01-28T01:06:26.620Z,0.01
2023-01-28T01:08:54.849Z,-0.01
2023-01-28T01:11:24.932Z,-0.02
2023-01-28T01:13:56.914Z,-0.02
2023-01-28T01:16:27.672Z,-0.03
2023-01-28T01:18:57.610Z,-0.02
2023-01-28T01:21:28.811Z,-0.02
2023-01-28T01:23:57.694Z,-0.03
2023-01-28T01:26:28.069Z,-0.04
2023-01-28T01:28:58.963Z,-0.04
2023-01-28T01:31:27.334Z,-0.06
2023-01-28T01:33:55.628Z,-0.09
2023-01-28T01:36:24.962Z,-0.10
2023-01-28T01:38:56.006Z,-0.09
2023-01-28T01:41:29.365Z,-0.10
2023-01-28T01:43:59.792Z,-0.10
2023-01-28T01:46:36.527Z,-0.07
2023-01-28T01:49:13.580Z,-0.03
2023-01-28T01:51:44.646Z,-0.05
2023-01-28T01:54:13.283Z,-0.04
2023-01-28T01:56:44.913Z,-0.05
2023-01-28T01:59:16.743Z,-0.05
2023-01-28T02:01:46.865Z,-0.04
2023-01-28T02:04:22.896Z,-0.03
2023-01-28T02:06:51.636Z,-0.03
2023-01-28T02:09:26.586Z,0.01
2023-01-28T02:11:57.822Z,0.03
2023-01-28T02:14:31.722Z,0.03
2023-01-28T02:17:01.865Z,0.04
2023-01-28T02:19:37.910Z,0.03
2023-01-28T02:22:51.929Z,0.03
2023-01-28T02:25:41.610Z,0.01
2023-01-28T02:28:18.761Z,0.03
2023-01-28T02:30:54.412Z,0.03
2023-01-28T02:33:30.700Z,0.03
2023-01-28T02:36:06.363Z,0.05
2023-01-28T02:38:42.898Z,0.04
2023-01-28T02:41:17.851Z,0.04
2023-01-28T02:43:48.668Z,0.04
2023-01-28T02:46:41.356Z,0.04
2023-01-28T02:49:14.743Z,0.02
2023-01-28T02:52:04.566Z,0.01
2023-01-28T02:54:39.551Z,0.03
2023-01-28T02:57:20.494Z,0.03
2023-01-28T02:59:55.777Z,0.07
2023-01-28T03:02:32.140Z,0.08
2023-01-28T03:05:05.125Z,0.08
2023-01-28T03:07:37.741Z,0.09
2023-01-28T03:10:10.966Z,0.10
2023-01-28T03:13:01.104Z,0.10
2023-01-28T03:15:54.019Z,0.09
2023-01-28T03:18:44.353Z,0.09
2023-01-28T03:21:33.728Z,0.08
2023-01-28T03:24:25.582Z,0.06
2023-01-28T03:27:20.919Z,0.08
2023-01-28T03:30:18.045Z,0.09
2023-01-28T03:33:05.489Z,0.09
2023-01-28T03:35:54.383Z,0.12
2023-01-28T03:38:24.117Z,0.10
2023-01-28T03:40:57.211Z,0.12
2023-01-28T03:43:25.932Z,0.10
2023-01-28T03:45:55.697Z,0.09
2023-01-28T03:48:28.458Z,0.12
2023-01-28T03:51:00.484Z,0.12
2023-01-28T03:53:30.931Z,0.13
2023-01-28T03:55:59.864Z,0.13
2023-01-28T03:58:46.582Z,0.15
2023-01-28T04:01:16.212Z,0.14
2023-01-28T04:03:46.491Z,0.12
2023-01-28T04:06:18.527Z,0.10
2023-01-28T04:09:00.172Z,0.09
2023-01-28T04:11:35.025Z,0.10
2023-01-28T04:14:06.099Z,0.09
2023-01-28T04:16:43.768Z,0.08
2023-01-28T04:19:14.669Z,0.08
2023-01-28T04:21:43.929Z,0.08
2023-01-28T04:24:12.694Z,0.11
2023-01-28T04:26:41.382Z,0.12
2023-01-28T04:29:10.157Z,0.13
2023-01-28T04:31:39.571Z,0.13
2023-01-28T04:34:21.887Z,0.15
2023-01-28T04:37:22.687Z,0.17
2023-01-28T04:40:26.287Z,0.15
2023-01-28T04:42:58.728Z,0.15
2023-01-28T04:45:39.268Z,0.16
2023-01-28T04:48:23.160Z,0.17
2023-01-28T04:51:15.815Z,0.19
2023-01-28T04:53:57.033Z,0.18
2023-01-28T04:56:28.488Z,0.19
2023-01-28T04:58:57.308Z,0.20
2023-01-28T05:01:26.110Z,0.19
2023-01-28T05:03:55.861Z,0.18
2023-01-28T05:06:28.901Z,0.18
2023-01-28T05:09:04.502Z,0.18
2023-01-28T05:11:33.204Z,0.19
2023-01-28T05:14:05.315Z,0.19
2023-01-28T05:16:42.648Z,0.19
2023-01-28T05:19:11.114Z,0.19
2023-01-28T05:21:46.872Z,0.20
2023-01-28T05:24:33.418Z,0.17
2023-01-28T05:27:03.119Z,0.14
2023-01-28T05:29:31.782Z,0.14
2023-01-28T05:32:01.298Z,0.16
2023-01-28T05:34:30.976Z,0.18
2023-01-28T05:37:03.713Z,0.19
2023-01-28T05:39:34.516Z,0.20
2023-01-28T05:42:03.032Z,0.19
2023-01-28T05:44:33.847Z,0.19
2023-01-28T05:47:28.648Z,0.22
2023-01-28T05:50:17.588Z,0.22
2023-01-28T05:53:08.072Z,0.22
2023-01-28T05:55:38.199Z,0.22
2023-01-28T05:58:07.844Z,0.18
2023-01-28T06:00:37.510Z,0.19
2023-01-28T06:03:06.975Z,0.17
2023-01-28T06:05:37.314Z,0.17
2023-01-28T06:08:07.556Z,0.13
2023-01-28T06:10:36.183Z,0.18
2023-01-28T06:13:04.895Z,0.18
2023-01-28T06:15:42.374Z,0.17
2023-01-28T06:18:41.429Z,0.17
2023-01-28T06:21:10.621Z,0.17
2023-01-28T06:23:40.184Z,0.19
2023-01-28T06:26:10.478Z,0.20
2023-01-28T06:28:41.888Z,0.22
2023-01-28T06:31:10.468Z,0.22
2023-01-28T06:33:38.952Z,0.21
2023-01-28T06:36:08.335Z,0.20
2023-01-28T06:38:36.681Z,0.21
2023-01-28T06:41:06.755Z,0.19
2023-01-28T06:43:36.163Z,0.19
2023-01-28T06:46:05.120Z,0.22
2023-01-28T06:48:33.485Z,0.23
2023-01-28T06:51:02.743Z,0.22
2023-01-28T06:53:31.170Z,0.23
2023-01-28T06:55:59.914Z,0.22
2023-01-28T06:58:30.231Z,0.23
2023-01-28T07:00:58.737Z,0.23
2023-01-28T07:03:27.050Z,0.24
2023-01-28T07:05:55.771Z,0.26
2023-01-28T07:08:23.973Z,0.26
2023-01-28T07:10:52.896Z,0.28
2023-01-28T07:13:21.638Z,0.28
2023-01-28T07:15:51.228Z,0.28
2023-01-28T07:18:19.905Z,0.29
2023-01-28T07:20:48.508Z,0.32
2023-01-28T07:23:16.676Z,0.32
2023-01-28T07:25:45.695Z,0.32
2023-01-28T07:28:14.458Z,0.33
2023-01-28T07:30:42.838Z,0.35
2023-01-28T07:33:12.601Z,0.36
2023-01-28T07:35:40.987Z,0.35
2023-01-28T07:38:09.496Z,0.35
2023-01-28T07:40:38.108Z,0.33
2023-01-28T07:43:07.250Z,0.35
2023-01-28T07:45:39.755Z,0.37
2023-01-28T07:48:11.333Z,0.37
2023-01-28T07:50:41.638Z,0.35
2023-01-28T07:53:11.911Z,0.38
2023-01-28T07:55:40.636Z,0.41
2023-01-28T07:58:11.487Z,0.42
2023-01-28T08:00:40.195Z,0.43
2023-01-28T08:03:13.952Z,0.42
2023-01-28T08:05:46.707Z,0.43
2023-01-28T08:08:15.826Z,0.43
2023-01-28T08:10:45.230Z,0.43
2023-01-28T08:13:15.013Z,0.43
2023-01-28T08:15:43.356Z,0.43
2023-01-28T08:18:14.691Z,0.44
2023-01-28T08:20:47.480Z,0.44
2023-01-28T08:23:17.467Z,0.47
2023-01-28T08:25:46.514Z,0.49
2023-01-28T08:28:15.800Z,0.49
2023-01-28T08:30:44.773Z,0.49
2023-01-28T08:33:16.014Z,0.47
2023-01-28T08:35:46.066Z,0.47
2023-01-28T08:38:20.521Z,0.47
2023-01-28T08:40:50.630Z,0.47
2023-01-28T08:43:18.814Z,0.48
2023-01-28T08:45:47.226Z,0.57
2023-01-28T08:48:18.904Z,0.57
2023-01-28T08:50:50.940Z,0.57
2023-01-28T08:53:21.493Z,0.60
2023-01-28T08:55:49.790Z,0.60
2023-01-28T08:58:19.654Z,0.61
2023-01-28T09:00:49.004Z,0.62
2023-01-28T09:03:17.931Z,0.61
2023-01-28T09:05:46.486Z,0.64
2023-01-28T09:08:16.693Z,0.67
2023-01-28T09:10:45.407Z,0.68
2023-01-28T09:13:16.207Z,0.68
2023-01-28T09:15:45.019Z,0.69
2023-01-28T09:18:13.744Z,0.74
2023-01-28T09:20:42.149Z,0.75
2023-01-28T09:23:11.165Z,0.78
2023-01-28T09:25:40.929Z,0.79
2023-01-28T09:28:09.986Z,0.79
2023-01-28T09:30:39.736Z,0.83
2023-01-28T09:33:09.006Z,0.86
2023-01-28T09:35:37.985Z,0.87
2023-01-28T09:38:06.803Z,0.89
2023-01-28T09:40:38.887Z,0.90
2023-01-28T09:43:21.024Z,0.90
2023-01-28T09:45:51.932Z,0.91
2023-01-28T09:48:23.979Z,0.93
2023-01-28T09:50:55.908Z,0.94
2023-01-28T09:53:27.077Z,0.97
2023-01-28T09:55:58.485Z,0.96
2023-01-28T09:58:28.068Z,0.97
2023-01-28T10:01:02.731Z,0.97
2023-01-28T10:03:48.815Z,0.99
2023-01-28T10:06:25.925Z,1.00
2023-01-28T10:09:14.197Z,1.05
2023-01-28T10:11:55.842Z,1.07
2023-01-28T10:14:30.221Z,1.04
2023-01-28T10:17:08.809Z,1.01
2023-01-28T10:19:42.765Z,1.02
2023-01-28T10:22:17.739Z,1.01
2023-01-28T10:24:51.431Z,0.99
2023-01-28T10:27:23.025Z,0.97
2023-01-28T10:29:53.737Z,0.95
2023-01-28T10:32:27.769Z,0.96
2023-01-28T10:34:59.767Z,0.98
2023-01-28T10:37:30.149Z,1.03
2023-01-28T10:40:00.438Z,1.02
2023-01-28T10:42:31.121Z,1.04
2023-01-28T10:45:04.512Z,1.04
2023-01-28T10:47:39.881Z,1.04
2023-01-28T10:50:16.639Z,1.06
2023-01-28T10:52:54.877Z,1.09
2023-01-28T10:55:24.186Z,1.09
2023-01-28T10:57:52.818Z,1.10
2023-01-28T11:00:28.247Z,1.14
2023-01-28T11:02:57.184Z,1.16
2023-01-28T11:05:28.374Z,1.18
2023-01-28T11:08:14.653Z,1.20
2023-01-28T11:10:44.138Z,1.19
2023-01-28T11:13:18.167Z,1.21
2023-01-28T11:15:54.705Z,1.20
2023-01-28T11:18:26.902Z,1.21
2023-01-28T11:20:59.029Z,1.25
2023-01-28T11:23:28.711Z,1.24
2023-01-28T11:26:04.041Z,1.21
2023-01-28T11:28:33.190Z,1.21
2023-01-28T11:31:04.796Z,1.19
2023-01-28T11:33:38.085Z,1.15
2023-01-28T11:36:10.071Z,1.16
2023-01-28T11:38:49.362Z,1.19
2023-01-28T11:41:18.034Z,1.18
2023-01-28T11:43:46.960Z,1.20
2023-01-28T11:46:36.871Z,1.23
2023-01-28T11:49:14.122Z,1.22
2023-01-28T11:51:49.278Z,1.21
2023-01-28T11:54:29.380Z,1.19
2023-01-28T11:57:27.454Z,1.22
2023-01-28T12:00:03.924Z,1.23
2023-01-28T12:02:51.777Z,1.22
2023-01-28T12:05:41.558Z,1.20
2023-01-28T12:08:19.786Z,1.22
2023-01-28T12:11:02.703Z,1.22
2023-01-28T12:13:46.214Z,1.26
2023-01-28T12:16:40.952Z,1.24
2023-01-28T12:19:22.155Z,1.25
2023-01-28T12:22:13.628Z,1.23
2023-01-28T12:25:03.730Z,1.25
2023-01-28T12:27:48.652Z,1.25
2023-01-28T12:30:27.446Z,1.18
2023-01-28T12:33:10.290Z,1.15
2023-01-28T12:35:55.880Z,1.12
2023-01-28T12:38:38.069Z,1.11
2023-01-28T12:41:16.801Z,1.12
2023-01-28T12:44:04.878Z,1.12
2023-01-28T12:46:43.606Z,1.12
2023-01-28T12:49:19.132Z,1.11
2023-01-28T12:52:11.062Z,1.10
2023-01-28T12:54:44.645Z,1.06
2023-01-28T12:57:19.157Z,1.07
2023-01-28T12:59:53.892Z,1.08
2023-01-28T13:02:31.322Z,1.07
2023-01-28T13:05:07.573Z,1.10
2023-01-28T13:07:50.115Z,1.07
2023-01-28T13:10:26.524Z,1.08
2023-01-28T13:12:55.824Z,1.07
2023-01-28T13:15:25.372Z,1.08
2023-01-28T13:18:02.871Z,1.08
2023-01-28T13:20:41.506Z,1.09
2023-01-28T13:23:43.616Z,1.10
2023-01-28T13:26:32.972Z,1.11
2023-01-28T13:29:26.431Z,1.15
2023-01-28T13:31:57.088Z,1.14
2023-01-28T13:34:43.027Z,1.13
2023-01-28T13:37:30.724Z,1.10
2023-01-28T13:40:13.777Z,1.07
2023-01-28T13:43:02.634Z,1.09
2023-01-28T13:45:32.417Z,1.15
2023-01-28T13:48:24.725Z,1.16
2023-01-28T13:50:57.557Z,1.15
2023-01-28T13:53:41.369Z,1.14
2023-01-28T13:56:22.119Z,1.13
2023-01-28T13:59:22.320Z,1.10
2023-01-28T14:02:17.206Z,1.07
2023-01-28T14:05:10.229Z,1.05
2023-01-28T14:07:55.011Z,1.02
2023-01-28T14:10:42.450Z,1.00
2023-01-28T14:13:33.477Z,0.98
2023-01-28T14:16:28.778Z,1.02
2023-01-28T14:19:00.914Z,1.02
2023-01-28T14:21:35.397Z,1.04
2023-01-28T14:24:04.516Z,1.07
2023-01-28T14:26:44.124Z,1.03
2023-01-28T14:29:27.397Z,1.04
2023-01-28T14:31:57.098Z,1.04
2023-01-28T14:34:29.404Z,1.06
2023-01-28T14:37:07.681Z,1.05
2023-01-28T14:39:44.822Z,1.08
2023-01-28T14:42:20.126Z,1.08
2023-01-28T14:44:55.729Z,1.06
2023-01-28T14:47:43.663Z,1.04
2023-01-28T14:50:44.729Z,1.03
2023-01-28T14:53:28.154Z,1.03
2023-01-28T14:56:02.713Z,1.01
2023-01-28T14:58:36.683Z,1.00
2023-01-28T15:01:07.814Z,1.00
2023-01-28T15:03:36.802Z,1.01
2023-01-28T15:06:07.644Z,1.00
2023-01-28T15:08:36.124Z,0.98
2023-01-28T15:11:07.815Z,0.97
2023-01-28T15:13:40.094Z,0.98
2023-01-28T15:16:19.290Z,0.99
2023-01-28T15:18:49.366Z,0.98
2023-01-28T15:21:21.339Z,0.97
2023-01-28T15:23:53.752Z,0.95
2023-01-28T15:26:24.956Z,0.94
2023-01-28T15:28:54.633Z,0.94
2023-01-28T15:31:26.324Z,0.94
2023-01-28T15:34:01.603Z,0.94
2023-01-28T15:36:30.780Z,0.94
2023-01-28T15:38:59.824Z,0.93
2023-01-28T15:41:33.826Z,0.93
2023-01-28T15:44:02.664Z,0.92
2023-01-28T15:46:32.823Z,0.92
2023-01-28T15:49:03.652Z,0.89
2023-01-28T15:51:35.003Z,0.86
2023-01-28T15:54:08.327Z,0.89
2023-01-28T15:56:37.819Z,0.90
2023-01-28T15:59:21.032Z,0.89
2023-01-28T16:01:51.033Z,0.88
2023-01-28T16:04:27.815Z,0.86
2023-01-28T16:06:58.891Z,0.84
2023-01-28T16:09:30.649Z,0.85
2023-01-28T16:12:05.347Z,0.85
2023-01-28T16:14:44.348Z,0.84
2023-01-28T16:17:18.560Z,0.85
2023-01-28T16:19:50.896Z,0.83
2023-01-28T16:22:22.235Z,0.86
2023-01-28T16:24:53.099Z,0.87
2023-01-28T16:27:23.684Z,0.86
2023-01-28T16:29:52.078Z,0.83
2023-01-28T16:32:31.467Z,0.79
2023-01-28T16:35:00.131Z,0.79
2023-01-28T16:37:28.876Z,0.79
2023-01-28T16:39:59.096Z,0.76
2023-01-28T16:42:29.821Z,0.78
2023-01-28T16:44:58.237Z,0.77
2023-01-28T16:47:26.719Z,0.79
2023-01-28T16:49:57.142Z,0.79
2023-01-28T16:52:25.705Z,0.78
2023-01-28T16:54:54.275Z,0.78
2023-01-28T16:57:23.736Z,0.77
2023-01-28T16:59:52.913Z,0.77
2023-01-28T17:02:21.253Z,0.76
2023-01-28T17:04:49.762Z,0.75
2023-01-28T17:07:19.607Z,0.73
2023-01-28T17:09:47.996Z,0.75
2023-01-28T17:12:16.936Z,0.76
2023-01-28T17:14:45.435Z,0.79
2023-01-28T17:17:13.885Z,0.81
2023-01-28T17:19:42.963Z,0.79
2023-01-28T17:22:11.559Z,0.80
2023-01-28T17:24:41.743Z,0.79
2023-01-28T17:27:10.207Z,0.75
2023-01-28T17:29:38.910Z,0.75
2023-01-28T17:32:09.366Z,0.72
2023-01-28T17:34:37.824Z,0.73
2023-01-28T17:37:06.223Z,0.72
2023-01-28T17:39:34.939Z,0.74
2023-01-28T17:42:08.300Z,0.78
2023-01-28T17:44:36.772Z,0.79
2023-01-28T17:47:05.246Z,0.77
2023-01-28T17:49:37.906Z,0.74
2023-01-28T17:52:06.524Z,0.73
2023-01-28T17:54:35.450Z,0.74
2023-01-28T17:57:05.229Z,0.74
2023-01-28T17:59:33.564Z,0.72
2023-01-28T18:02:02.958Z,0.70
2023-01-28T18:04:31.650Z,0.70
2023-01-28T18:07:00.154Z,0.71
2023-01-28T18:09:29.665Z,0.73
2023-01-28T18:11:58.923Z,0.73
2023-01-28T18:14:29.179Z,0.70
2023-01-28T18:16:57.774Z,0.70
2023-01-28T18:19:26.486Z,0.70
2023-01-28T18:21:55.987Z,0.68
2023-01-28T18:24:26.171Z,0.67
2023-01-28T18:26:58.368Z,0.69
2023-01-28T18:29:29.966Z,0.65
2023-01-28T18:31:59.753Z,0.62
2023-01-28T18:34:31.805Z,0.62
2023-01-28T18:37:00.638Z,0.61
2023-01-28T18:39:31.205Z,0.60
2023-01-28T18:42:00.469Z,0.59
2023-01-28T18:44:32.110Z,0.56
2023-01-28T18:47:01.133Z,0.55
2023-01-28T18:49:29.775Z,0.56
2023-01-28T18:51:59.586Z,0.55
2023-01-28T18:54:28.721Z,0.54
2023-01-28T18:56:57.208Z,0.52
2023-01-28T18:59:25.999Z,0.56
2023-01-28T19:01:55.975Z,0.57
2023-01-28T19:04:24.982Z,0.57
2023-01-28T19:06:56.773Z,0.55
2023-01-28T19:09:25.577Z,0.55
2023-01-28T19:11:53.974Z,0.56
2023-01-28T19:14:22.431Z,0.54
2023-01-28T19:16:50.819Z,0.50
2023-01-28T19:19:21.590Z,0.52
2023-01-28T19:21:49.994Z,0.51
2023-01-28T19:24:18.906Z,0.47
2023-01-28T19:26:47.671Z,0.47
2023-01-28T19:29:16.805Z,0.49
2023-01-28T19:31:49.138Z,0.47
2023-01-28T19:34:17.948Z,0.47
2023-01-28T19:36:48.286Z,0.50
2023-01-28T19:39:18.296Z,0.49
2023-01-28T19:41:46.966Z,0.45
2023-01-28T19:44:15.443Z,0.49
2023-01-28T19:46:43.816Z,0.49
2023-01-28T19:49:13.207Z,0.49
2023-01-28T19:51:42.517Z,0.50
2023-01-28T19:54:12.354Z,0.50
2023-01-28T19:56:41.519Z,0.49
2023-01-28T19:59:10.035Z,0.47
2023-01-28T20:01:38.873Z,0.47
2023-01-28T20:04:08.688Z,0.47
2023-01-28T20:06:37.787Z,0.45
2023-01-28T20:09:08.656Z,0.42
2023-01-28T20:11:38.547Z,0.42
2023-01-28T20:14:07.059Z,0.41
2023-01-28T20:16:36.621Z,0.43
2023-01-28T20:19:06.602Z,0.45
2023-01-28T20:21:36.453Z,0.44
2023-01-28T20:24:06.691Z,0.45
2023-01-28T20:26:37.676Z,0.45
2023-01-28T20:29:11.374Z,0.45
2023-01-28T20:31:41.133Z,0.45
2023-01-28T20:34:13.783Z,0.44
2023-01-28T20:36:42.343Z,0.46
2023-01-28T20:39:11.166Z,0.48
2023-01-28T20:41:39.695Z,0.49
2023-01-28T20:44:09.758Z,0.49
2023-01-28T20:46:39.072Z,0.47
2023-01-28T20:49:07.909Z,0.44
2023-01-28T20:51:38.390Z,0.45
2023-01-28T20:54:07.709Z,0.44
2023-01-28T20:56:36.308Z,0.39
2023-01-28T20:59:06.960Z,0.38
2023-01-28T21:01:37.689Z,0.38
2023-01-28T21:04:10.849Z,0.38
2023-01-28T21:06:40.233Z,0.39
2023-01-28T21:09:08.660Z,0.37
2023-01-28T21:11:38.073Z,0.40
2023-01-28T21:14:06.663Z,0.41
2023-01-28T21:16:41.270Z,0.43
2023-01-28T21:19:10.283Z,0.45
2023-01-28T21:21:42.659Z,0.47
2023-01-28T21:24:12.740Z,0.47
2023-01-28T21:26:41.829Z,0.46
2023-01-28T21:29:10.330Z,0.45
2023-01-28T21:31:40.132Z,0.45
2023-01-28T21:34:09.320Z,0.44
2023-01-28T21:36:37.884Z,0.38
2023-01-28T21:39:06.559Z,0.33
2023-01-28T21:41:34.924Z,0.33
2023-01-28T21:44:03.817Z,0.32
2023-01-28T21:46:34.803Z,0.33
2023-01-28T21:49:06.312Z,0.36
2023-01-28T21:51:39.805Z,0.35
2023-01-28T21:54:11.081Z,0.32
2023-01-28T21:56:39.698Z,0.30
2023-01-28T21:59:25.418Z,0.28
2023-01-28T22:01:54.186Z,0.28
2023-01-28T22:04:24.499Z,0.29
2023-01-28T22:06:54.806Z,0.27
2023-01-28T22:09:23.810Z,0.27
2023-01-28T22:11:52.468Z,0.26
2023-01-28T22:14:21.430Z,0.27
2023-01-28T22:16:50.707Z,0.27
2023-01-28T22:19:19.659Z,0.27
2023-01-28T22:21:50.000Z,0.25
2023-01-28T22:24:20.173Z,0.24
2023-01-28T22:26:49.067Z,0.26
2023-01-28T22:29:19.586Z,0.26
2023-01-28T22:31:50.115Z,0.23
2023-01-28T22:34:20.412Z,0.24
2023-01-28T22:36:51.669Z,0.22
2023-01-28T22:39:20.266Z,0.23
2023-01-28T22:41:49.234Z,0.24
2023-01-28T22:44:19.785Z,0.23
2023-01-28T22:46:48.671Z,0.20
2023-01-28T22:49:17.222Z,0.18
2023-01-28T22:51:45.541Z,0.16
2023-01-28T22:54:15.483Z,0.18
2023-01-28T22:56:44.051Z,0.14
2023-01-28T22:59:13.124Z,0.17
2023-01-28T23:01:41.803Z,0.15
2023-01-28T23:04:10.366Z,0.14
2023-01-28T23:06:39.107Z,0.13
2023-01-28T23:09:07.544Z,0.12
2023-01-28T23:11:37.374Z,0.09
2023-01-28T23:14:23.428Z,0.08
2023-01-28T23:17:10.366Z,0.07
2023-01-28T23:19:56.629Z,0.04
2023-01-28T23:22:46.203Z,0.04
2023-01-28T23:25:14.968Z,0.03
2023-01-28T23:27:45.726Z,0.02
2023-01-28T23:30:15.899Z,0.01
2023-01-28T23:32:48.349Z,0.03
2023-01-28T23:35:19.211Z,0.02
2023-01-28T23:37:48.172Z,-0.01
2023-01-28T23:40:17.302Z,-0.02
2023-01-28T23:42:51.055Z,-0.01
2023-01-28T23:45:19.944Z,-0.02
2023-01-28T23:47:48.737Z,-0.04
2023-01-28T23:50:18.110Z,-0.07
2023-01-28T23:52:47.142Z,-0.10
2023-01-28T23:55:16.075Z,-0.10
2023-01-28T23:57:44.649Z,-0.10
